Time;durP1;ratioP1;P1;durP2;ratioP2;P2;SDS_P1;SDS_P2;PMS_P1;PMS_P2;Temp;Humidity;BMP_temperature;BMP_pressure;BME280_temperature;BME280_humidity;BME280_pressure;Samples;Min_cycle;Max_cycle;Signal;HPM_P1;HPM_P2
2022/05/20 00:02:13;;;;;;;;;;;;;;;;;;;;;
2022/05/20 00:04:55;;;;;;;2.72;1.45;;;20.90;99.90;;;;;;5016695;28;40612;-82
2022/05/20 00:07:59;;;;;;;4.30;2.10;;;20.70;99.90;;;;;;5003217;28;20112;-82
2022/05/20 00:11:07;;;;;;;2.67;1.45;;;20.70;99.90;;;;;;5001091;28;21006;-82
2022/05/20 00:14:08;;;;;;;;;;;;;;;;;;;;;
2022/05/20 00:23:25;;;;;;;3.35;1.52;;;20.50;99.90;;;;;;4946320;28;20605;-82
2022/05/20 00:26:28;;;;;;;2.40;1.58;;;20.50;99.90;;;;;;5073653;28;20556;-83
2022/05/20 00:29:47;;;;;;;3.25;1.35;;;20.50;99.90;;;;;;5046489;28;20116;-83
2022/05/20 00:32:56;;;;;;;4.03;1.73;;;20.50;99.90;;;;;;4983166;28;20109;-82
2022/05/20 00:36:19;;;;;;;3.10;1.58;;;20.40;99.90;;;;;;4999833;28;20054;-83
2022/05/20 00:39:00;;;;;;;3.28;1.40;;;20.40;99.90;;;;;;5045312;28;20063;-82
2022/05/20 00:41:55;;;;;;;2.72;1.70;;;20.40;99.90;;;;;;5049942;28;20048;-82
2022/05/20 00:44:34;;;;;;;2.22;1.73;;;20.20;99.90;;;;;;5056157;28;20052;-82
2022/05/20 00:47:41;;;;;;;;;;;;;;;;;;;;;
2022/05/20 00:50:35;;;;;;;6.32;1.55;;;20.40;99.90;;;;;;5072352;28;43552;-83
2022/05/20 00:56:21;;;;;;;;;;;;;;;;;;;;;
2022/05/20 00:59:30;;;;;;;4.35;1.60;;;20.10;99.90;;;;;;5070967;28;43803;-82
2022/05/20 01:05:31;;;;;;;3.08;1.30;;;20.30;99.90;;;;;;5076621;28;20041;-82
2022/05/20 01:18:56;;;;;;;2.72;1.48;;;19.80;99.90;;;;;;4944505;28;20159;-83
2022/05/20 01:21:58;;;;;;;5.22;1.95;;;20.10;99.90;;;;;;5000813;28;20039;-82
2022/05/20 01:24:42;;;;;;;4.05;1.48;;;20.10;99.90;;;;;;4923938;28;20601;-82
2022/05/20 01:28:24;;;;;;;3.13;1.50;;;20.10;99.90;;;;;;4931201;28;20050;-82
2022/05/20 01:31:16;;;;;;;3.80;1.60;;;20.00;99.90;;;;;;4973874;28;20061;-83
2022/05/20 01:34:21;;;;;;;;;;;;;;;;;;;;;
2022/05/20 01:43:30;;;;;;;;;;;;;;;;;;;;;
2022/05/20 01:46:54;;;;;;;2.45;1.58;;;19.40;99.90;;;;;;4977781;28;39287;-83
2022/05/20 01:50:30;;;;;;;4.70;2.38;;;19.90;99.90;;;;;;4977660;28;20055;-82
2022/05/20 01:57:30;;;;;;;2.55;1.65;;;19.80;99.90;;;;;;5040819;28;20037;-82
2022/05/20 02:00:58;;;;;;;;;;;;;;;;;;;;;
2022/05/20 02:04:10;;;;;;;3.65;1.42;;;19.90;99.90;;;;;;5032367;28;43585;-82
2022/05/20 02:07:32;;;;;;;4.18;1.52;;;20.00;99.90;;;;;;5039031;28;20590;-82
2022/05/20 02:10:22;;;;;;;;;;;;;;;;;;;;;
2022/05/20 02:13:19;;;;;;;2.30;1.58;;;20.10;99.90;;;;;;5041584;28;39479;-82
2022/05/20 02:16:56;;;;;;;3.22;1.77;;;19.80;99.90;;;;;;5038716;28;20629;-83
2022/05/20 02:23:31;;;;;;;5.00;1.95;;;19.70;99.90;;;;;;4938586;28;20568;-82
2022/05/20 02:27:06;;;;;;;;;;;;;;;;;;;;;
2022/05/20 02:30:33;;;;;;;;;;;;;;;;;;;;;
2022/05/20 02:37:00;;;;;;;2.40;1.35;;;19.70;99.90;;;;;;4978326;28;20047;-82
2022/05/20 02:39:55;;;;;;;2.22;1.42;;;19.70;99.90;;;;;;4963245;28;20098;-82
2022/05/20 02:43:31;;;;;;;3.35;1.60;;;19.70;99.90;;;;;;5045830;28;20119;-82
2022/05/20 02:46:37;;;;;;;4.20;1.60;;;19.60;99.90;;;;;;5045248;28;20152;-82
2022/05/20 02:52:24;;;;;;;3.65;1.50;;;19.50;99.90;;;;;;5045010;28;20136;-83
2022/05/20 03:05:38;;;;;;;2.10;1.45;;;19.70;99.90;;;;;;5045255;28;20099;-82
2022/05/20 03:08:41;;;;;;;7.95;2.78;;;19.60;99.90;;;;;;5009270;28;20402;-83
2022/05/20 03:15:06;;;;;;;4.60;1.85;;;19.60;99.90;;;;;;4971678;28;20053;-83
2022/05/20 03:18:25;;;;;;;4.80;2.10;;;19.20;99.90;;;;;;4878792;29;20128;-82
2022/05/20 03:24:37;;;;;;;1.33;1.20;;;19.40;99.90;;;;;;5007709;28;20061;-83
2022/05/20 03:27:41;;;;;;;1.70;1.27;;;19.40;99.90;;;;;;5006139;28;20048;-83
2022/05/20 03:31:07;;;;;;;5.90;2.72;;;19.40;99.90;;;;;;5004510;28;20101;-83
2022/05/20 03:33:57;;;;;;;4.47;2.20;;;19.10;99.90;;;;;;5013948;28;20091;-82
2022/05/20 03:36:43;;;;;;;4.15;2.05;;;18.80;99.90;;;;;;5024948;28;20053;-82
2022/05/20 03:40:23;;;;;;;6.03;2.08;;;19.30;99.90;;;;;;5031271;28;20090;-83
2022/05/20 03:42:57;;;;;;;2.60;1.50;;;19.30;99.90;;;;;;5031134;28;20068;-82
2022/05/20 03:45:50;;;;;;;2.47;2.00;;;19.30;99.90;;;;;;5050612;28;20049;-83
2022/05/20 03:48:40;;;;;;;3.72;1.73;;;19.30;99.90;;;;;;5031904;28;20045;-82
2022/05/20 03:55:03;;;;;;;3.45;1.58;;;19.40;99.90;;;;;;5008489;28;20546;-83
2022/05/20 03:58:07;;;;;;;2.22;1.65;;;19.50;99.90;;;;;;5047746;28;20029;-83
2022/05/20 04:04:01;;;;;;;;;;;;;;;;;;;;;
2022/05/20 04:09:48;;;;;;;4.88;2.03;;;19.60;99.90;;;;;;5048961;28;20042;-83
2022/05/20 04:12:50;;;;;;;3.40;1.60;;;19.70;99.90;;;;;;5029461;28;20152;-83
2022/05/20 04:15:37;;;;;;;3.22;1.95;;;19.70;99.90;;;;;;5046024;28;20041;-83
2022/05/20 04:22:17;;;;;;;2.67;1.40;;;19.80;99.90;;;;;;5011803;28;20045;-83
2022/05/20 04:25:15;;;;;;;4.32;2.28;;;20.10;99.90;;;;;;5066724;28;20060;-84
2022/05/20 04:28:33;;;;;;;2.67;1.77;;;19.80;99.90;;;;;;5042044;28;20569;-83
2022/05/20 04:35:08;;;;;;;;;;;;;;;;;;;;;
2022/05/20 04:38:42;;;;;;;2.65;1.40;;;19.60;99.90;;;;;;4323956;27;21788629;-82
2022/05/20 05:01:20;;;;;;;5.20;2.40;;;19.60;99.90;;;;;;5078926;27;20043;-84
2022/05/20 05:04:09;;;;;;;5.15;2.70;;;19.30;99.90;;;;;;5119065;27;20525;-83
2022/05/20 05:20:53;;;;;;;3.78;2.25;;;19.00;99.90;;;;;;5118826;27;20074;-83
2022/05/20 05:23:56;;;;;;;4.15;2.55;;;19.10;99.90;;;;;;5115599;27;20061;-82
2022/05/20 05:27:21;;;;;;;4.72;2.30;;;19.10;99.90;;;;;;5114607;27;20682;-82
2022/05/20 05:30:16;;;;;;;10.35;4.10;;;19.30;99.90;;;;;;5112438;27;20518;-84
2022/05/20 05:32:58;;;;;;;7.38;2.80;;;18.90;99.90;;;;;;5118569;27;20064;-84
2022/05/20 05:35:42;;;;;;;;;;;;;;;;;;;;;
2022/05/20 05:38:33;;;;;;;7.75;2.35;;;19.20;99.90;;;;;;5133949;27;44886;-80
2022/05/20 05:41:19;;;;;;;6.55;2.38;;;19.90;99.90;;;;;;5130810;27;20047;-81
2022/05/20 05:47:42;;;;;;;8.27;2.60;;;19.10;99.90;;;;;;5126572;27;22332;-80
2022/05/20 05:50:20;;;;;;;5.70;2.92;;;19.10;99.90;;;;;;5129327;27;20051;-81
2022/05/20 05:53:15;;;;;;;6.82;2.80;;;19.20;99.90;;;;;;5110234;27;21205;-81
2022/05/20 05:55:58;;;;;;;5.38;2.50;;;19.20;99.90;;;;;;5096117;27;20118;-80
2022/05/20 05:58:31;;;;;;;4.55;2.22;;;19.20;99.90;;;;;;5109740;27;20086;-81
2022/05/20 06:01:09;;;;;;;9.68;4.10;;;19.10;99.90;;;;;;5093943;27;20075;-82
2022/05/20 06:03:47;;;;;;;9.20;3.10;;;19.60;99.90;;;;;;5102360;27;20059;-81
2022/05/20 06:06:29;;;;;;;6.15;2.65;;;19.30;99.90;;;;;;5094440;27;20052;-81
2022/05/20 06:09:07;;;;;;;7.57;3.20;;;19.10;99.90;;;;;;5111021;27;20389;-81
2022/05/20 06:11:39;;;;;;;3.92;2.13;;;19.20;99.90;;;;;;5109549;27;20532;-81
2022/05/20 06:14:26;;;;;;;8.07;3.38;;;19.20;99.90;;;;;;5107005;27;20059;-81
2022/05/20 06:16:55;;;;;;;5.28;2.10;;;19.20;99.90;;;;;;5108084;27;20043;-81
2022/05/20 06:19:29;;;;;;;5.35;2.95;;;19.10;99.90;;;;;;5106717;27;21023;-81
2022/05/20 06:22:28;;;;;;;5.93;2.60;;;19.30;99.90;;;;;;5110211;27;20051;-81
2022/05/20 06:28:49;;;;;;;6.18;2.75;;;19.40;99.90;;;;;;5126890;27;20048;-85
2022/05/20 06:31:36;;;;;;;3.75;2.17;;;19.70;99.90;;;;;;5123099;27;20044;-80
2022/05/20 06:34:15;;;;;;;4.07;2.33;;;19.40;99.90;;;;;;5105700;27;20169;-80
2022/05/20 06:39:50;;;;;;;6.13;2.05;;;19.80;99.90;;;;;;5125870;27;20096;-81
2022/05/20 06:45:38;;;;;;;6.25;3.47;;;20.00;99.90;;;;;;5118642;27;20059;-80
2022/05/20 06:48:36;;;;;;;8.30;3.05;;;20.10;99.90;;;;;;5109386;27;20211;-81
2022/05/20 06:51:25;;;;;;;6.50;2.65;;;19.80;99.90;;;;;;5084988;27;20071;-81
2022/05/20 06:54:15;;;;;;;7.70;3.03;;;20.20;99.90;;;;;;5130005;27;20090;-81
2022/05/20 06:57:18;;;;;;;3.50;2.45;;;20.30;99.90;;;;;;5111960;27;20058;-81
2022/05/20 06:59:49;;;;;;;5.93;3.17;;;20.40;99.90;;;;;;5089197;27;20113;-81
2022/05/20 07:02:35;;;;;;;6.95;3.22;;;20.80;99.90;;;;;;5107021;27;20081;-81
2022/05/20 07:05:10;;;;;;;5.32;2.88;;;20.80;99.90;;;;;;5108051;27;20074;-81
2022/05/20 07:07:53;;;;;;;5.00;3.03;;;20.90;99.90;;;;;;5110029;27;20044;-81
2022/05/20 07:10:45;;;;;;;4.95;3.00;;;21.00;99.90;;;;;;5107484;27;20053;-81
2022/05/20 07:13:19;;;;;;;6.07;2.78;;;21.00;99.90;;;;;;5107240;27;20048;-81
2022/05/20 07:16:00;;;;;;;4.82;2.65;;;21.00;99.90;;;;;;5127123;27;20326;-80
2022/05/20 07:18:40;;;;;;;5.35;2.30;;;20.80;99.90;;;;;;5095252;27;20077;-81
2022/05/20 07:21:18;;;;;;;4.53;2.22;;;20.80;99.90;;;;;;5107695;27;20050;-81
2022/05/20 07:24:01;;;;;;;3.65;2.50;;;20.70;99.90;;;;;;5127277;27;20039;-82
2022/05/20 07:27:11;;;;;;;5.68;3.17;;;21.00;99.90;;;;;;5104355;27;20055;-82
2022/05/20 07:30:00;;;;;;;4.50;2.33;;;20.60;99.90;;;;;;5104358;27;20063;-81
2022/05/20 07:32:35;;;;;;;7.45;3.95;;;20.60;99.90;;;;;;5103896;27;20043;-81
2022/05/20 07:35:25;;;;;;;12.70;4.68;;;20.60;99.90;;;;;;5127800;27;20126;-81
2022/05/20 07:38:03;;;;;;;5.90;2.67;;;20.20;99.90;;;;;;5102041;27;20158;-81
2022/05/20 07:40:43;;;;;;;5.85;3.00;;;20.60;99.90;;;;;;5104307;27;20514;-81
2022/05/20 07:46:26;;;;;;;6.28;3.15;;;20.40;99.90;;;;;;5106313;27;20122;-80
2022/05/20 07:49:09;;;;;;;6.72;3.13;;;20.40;99.90;;;;;;5106638;27;20052;-80
2022/05/20 07:51:46;;;;;;;3.22;2.60;;;20.40;99.90;;;;;;5101608;27;20947;-79
2022/05/20 07:54:38;;;;;;;8.13;3.47;;;20.50;99.90;;;;;;5105888;27;20593;-81
2022/05/20 07:57:14;;;;;;;7.07;3.15;;;20.90;99.90;;;;;;5104907;27;20723;-82
2022/05/20 08:00:22;;;;;;;;;;;;;;;;;;;;;
2022/05/20 08:03:06;;;;;;;9.60;3.78;;;20.50;99.90;;;;;;5105054;27;43279;-80
2022/05/20 08:05:40;;;;;;;5.18;3.05;;;20.40;99.90;;;;;;5103148;27;20135;-81
2022/05/20 08:08:35;;;;;;;5.72;3.45;;;20.30;99.90;;;;;;5106114;27;20047;-81
2022/05/20 08:11:45;;;;;;;;;;;;;;;;;;;;;
2022/05/20 08:14:28;;;;;;;5.93;3.25;;;20.30;99.90;;;;;;5104972;27;43747;-81
2022/05/20 08:17:06;;;;;;;4.93;3.05;;;20.60;99.90;;;;;;5106272;27;20044;-81
2022/05/20 08:22:33;;;;;;;4.90;3.72;;;21.30;99.90;;;;;;5100928;27;20047;-81
2022/05/20 08:25:33;;;;;;;;;;;;;;;;;;;;;
2022/05/20 08:28:10;;;;;;;6.20;3.13;;;21.20;99.90;;;;;;5104027;27;42526;-80
2022/05/20 08:31:02;;;;;;;6.38;3.05;;;21.40;99.90;;;;;;5103109;27;20768;-80
2022/05/20 08:33:31;;;;;;;;;;;21.40;99.90;;;;;;5104989;27;21179;-80
2022/05/20 08:36:10;;;;;;;4.90;2.45;;;21.10;99.90;;;;;;5089767;27;20018;-81
2022/05/20 08:38:48;;;;;;;4.28;2.75;;;21.30;99.90;;;;;;5103636;27;20047;-79
2022/05/20 08:41:34;;;;;;;5.97;3.03;;;21.60;99.90;;;;;;5102088;27;20574;-80
2022/05/20 08:44:33;;;;;;;4.65;2.70;;;21.70;99.90;;;;;;5103682;27;20044;-80
2022/05/20 08:47:40;;;;;;;6.85;3.15;;;21.70;99.90;;;;;;5104305;27;20048;-81
2022/05/20 08:50:23;;;;;;;5.15;3.17;;;22.20;99.90;;;;;;5102392;27;20058;-80
2022/05/20 08:52:54;;;;;;;7.38;2.90;;;22.40;99.90;;;;;;5105158;27;20201;-80
2022/05/20 08:55:28;;;;;;;4.95;2.78;;;22.40;99.90;;;;;;5105449;27;20131;-80
2022/05/20 08:58:06;;;;;;;7.53;4.00;;;22.20;99.90;;;;;;5105265;27;20043;-80
2022/05/20 09:04:03;;;;;;;;;;;;;;;;;;;;;
2022/05/20 09:06:35;;;;;;;6.80;3.85;;;21.50;99.90;;;;;;5105607;27;39433;-80
2022/05/20 09:09:19;;;;;;;7.45;4.07;;;21.40;99.90;;;;;;5105723;27;20814;-81
2022/05/20 09:11:58;;;;;;;6.55;4.68;;;21.30;99.90;;;;;;5101252;27;20123;-80
2022/05/20 09:17:55;;;;;;;5.95;3.88;;;21.70;99.90;;;;;;5106664;27;21459;-80
2022/05/20 09:20:23;;;;;;;8.00;4.53;;;21.90;99.90;;;;;;5104130;27;20044;-82
2022/05/20 09:23:15;;;;;;;8.10;4.35;;;22.00;99.90;;;;;;5107722;27;20048;-81
2022/05/20 09:26:08;;;;;;;8.52;3.90;;;21.90;99.90;;;;;;5109448;27;20586;-81
2022/05/20 09:28:44;;;;;;;7.13;4.50;;;22.20;99.90;;;;;;5106511;27;20127;-80
2022/05/20 09:31:56;;;;;;;6.20;3.63;;;22.50;99.90;;;;;;5108183;27;20636;-80
2022/05/20 09:34:31;;;;;;;5.75;3.58;;;22.60;99.90;;;;;;5106866;27;20111;-81
2022/05/20 09:37:09;;;;;;;6.47;3.72;;;22.70;99.90;;;;;;5106142;27;20074;-81
2022/05/20 09:40:12;;;;;;;7.25;3.78;;;22.70;99.90;;;;;;5128529;27;20048;-83
2022/05/20 09:43:33;;;;;;;6.50;3.25;;;22.60;99.90;;;;;;5109990;27;20134;-84
2022/05/20 09:47:01;;;;;;;6.03;3.33;;;22.80;99.90;;;;;;5067058;28;20082;-84
2022/05/20 09:49:52;;;;;;;4.75;2.83;;;22.90;99.90;;;;;;5068704;28;20055;-82
2022/05/20 09:52:57;;;;;;;8.18;3.20;;;22.90;99.90;;;;;;5069062;28;20074;-83
2022/05/20 09:55:49;;;;;;;4.65;3.42;;;22.90;99.90;;;;;;5084339;28;20052;-83
2022/05/20 10:02:25;;;;;;;5.13;3.28;;;23.30;99.90;;;;;;5058549;28;20408;-82
2022/05/20 10:05:41;;;;;;;6.50;2.97;;;23.30;99.90;;;;;;5064126;28;20588;-82
2022/05/20 10:15:39;;;;;;;5.68;3.92;;;23.30;99.90;;;;;;5062423;27;20036;-82
2022/05/20 10:18:55;;;;;;;;;;;;;;;;;;;;;
2022/05/20 10:22:04;;;;;;;7.68;3.28;;;23.20;99.90;;;;;;5126728;27;42936;-83
2022/05/20 10:25:26;;;;;;;4.95;2.72;;;23.50;99.90;;;;;;5110027;27;20047;-82
2022/05/20 10:35:07;;;;;;;6.05;3.30;;;23.50;99.90;;;;;;5132530;27;20035;-83
2022/05/20 10:38:18;;;;;;;5.90;3.03;;;23.30;99.90;;;;;;5110263;27;20039;-83
2022/05/20 10:41:35;;;;;;;6.90;3.33;;;23.70;99.90;;;;;;5131550;27;20617;-82
2022/05/20 10:51:33;;;;;;;6.05;3.25;;;24.30;99.90;;;;;;5066864;27;20043;-82
2022/05/20 10:54:33;;;;;;;4.15;2.90;;;24.50;99.90;;;;;;5097381;27;20055;-83
2022/05/20 10:57:53;;;;;;;6.68;3.03;;;24.60;99.90;;;;;;5109868;27;20588;-83
2022/05/20 11:00:28;;;;;;;7.28;3.20;;;24.70;99.90;;;;;;5108434;27;20052;-82
2022/05/20 11:03:13;;;;;;;5.65;2.88;;;24.70;99.90;;;;;;5128311;27;20046;-82
2022/05/20 11:06:15;;;;;;;5.32;2.80;;;24.70;99.90;;;;;;5109833;27;21010;-82
2022/05/20 11:09:27;;;;;;;6.57;3.63;;;24.70;99.90;;;;;;5090983;27;20051;-83
2022/05/20 11:12:02;;;;;;;8.98;3.90;;;24.60;99.90;;;;;;5110466;27;20078;-82
2022/05/20 11:15:08;;;;;;;7.43;3.60;;;24.70;99.90;;;;;;5110506;27;20055;-83
2022/05/20 11:18:08;;;;;;;5.63;3.17;;;24.70;99.90;;;;;;5112121;27;20309;-82
2022/05/20 11:21:15;;;;;;;8.00;3.63;;;24.70;99.90;;;;;;5083953;27;20139;-82
2022/05/20 11:24:28;;;;;;;;;;;;;;;;;;;;;
2022/05/20 11:27:28;;;;;;;5.70;3.20;;;24.90;99.90;;;;;;5128462;27;43962;-82
2022/05/20 11:33:31;;;;;;;8.40;3.55;;;24.90;99.90;;;;;;5116323;27;20627;-82
2022/05/20 11:36:25;;;;;;;7.95;3.83;;;25.10;99.90;;;;;;5086994;27;20059;-83
2022/05/20 11:39:18;;;;;;;7.65;3.63;;;25.10;99.90;;;;;;5069078;27;20593;-83
2022/05/20 11:42:16;;;;;;;5.93;3.63;;;25.10;99.90;;;;;;5076405;27;20048;-83
2022/05/20 11:45:42;;;;;;;6.88;3.72;;;25.20;99.90;;;;;;5070338;27;20044;-83
2022/05/20 11:48:34;;;;;;;6.00;3.50;;;25.40;99.90;;;;;;5085720;27;20099;-82
2022/05/20 11:51:15;;;;;;;5.88;4.00;;;25.40;99.90;;;;;;5084225;27;20106;-80
2022/05/20 11:53:42;;;;;;;6.07;3.53;;;25.30;99.90;;;;;;5086653;27;20824;-80
2022/05/20 11:56:21;;;;;;;6.75;3.55;;;25.30;99.90;;;;;;5085162;27;20080;-80
2022/05/20 11:59:15;;;;;;;5.97;3.60;;;25.50;99.90;;;;;;5085655;27;20388;-80
2022/05/20 12:01:44;;;;;;;5.47;3.58;;;25.60;99.90;;;;;;5103938;27;20101;-82
2022/05/20 12:04:12;;;;;;;5.97;3.88;;;25.50;99.90;;;;;;5102975;27;20043;-83
2022/05/20 12:06:43;;;;;;;5.80;4.18;;;25.30;99.90;;;;;;5124383;27;20039;-83
2022/05/20 12:09:28;;;;;;;5.35;3.67;;;25.20;99.90;;;;;;5089379;27;20043;-83
2022/05/20 12:12:11;;;;;;;7.50;3.35;;;25.20;99.90;;;;;;5124961;27;20044;-83
2022/05/20 12:15:05;;;;;;;6.15;3.63;;;25.10;99.90;;;;;;5090423;27;20943;-83
2022/05/20 12:17:34;;;;;;;8.98;3.83;;;24.90;99.90;;;;;;5089464;27;20040;-83
2022/05/20 12:26:00;;;;;;;5.93;3.83;;;24.70;99.90;;;;;;5123864;27;20040;-83
2022/05/20 12:28:26;;;;;;;;;;;24.60;99.90;;;;;;5125111;27;20512;-83
2022/05/20 12:31:11;;;;;;;6.25;3.75;;;24.50;99.90;;;;;;5127525;27;19930;-83
2022/05/20 12:34:05;;;;;;;5.72;3.33;;;24.60;99.90;;;;;;5126457;27;20050;-83
2022/05/20 12:36:31;;;;;;;5.47;3.35;;;24.90;99.90;;;;;;5123734;27;20035;-83
2022/05/20 12:39:09;;;;;;;5.55;3.42;;;25.00;99.90;;;;;;5125453;27;20052;-83
2022/05/20 12:42:03;;;;;;;5.22;3.58;;;25.00;99.90;;;;;;5108175;27;20201;-83
2022/05/20 12:44:36;;;;;;;4.55;3.00;;;24.90;99.90;;;;;;5105878;27;20044;-82
2022/05/20 12:47:04;;;;;;;4.97;2.70;;;24.70;99.90;;;;;;5123934;27;20046;-83
2022/05/20 12:49:36;;;;;;;5.82;3.30;;;24.70;99.90;;;;;;5106117;27;20032;-83
2022/05/20 12:52:31;;;;;;;4.80;2.70;;;24.90;99.90;;;;;;5121118;27;20418;-83
2022/05/20 12:55:19;;;;;;;6.57;2.63;;;25.10;99.90;;;;;;5082840;27;20522;-83
2022/05/20 12:57:54;;;;;;;3.58;2.90;;;25.20;99.90;;;;;;5124276;27;20202;-83
2022/05/20 13:00:44;;;;;;;5.60;3.08;;;25.30;99.90;;;;;;5107569;27;20896;-83
2022/05/20 13:03:30;;;;;;;5.63;2.75;;;25.40;99.90;;;;;;5109440;27;21278;-83
2022/05/20 13:06:02;;;;;;;7.03;2.83;;;25.50;99.90;;;;;;5129327;27;20052;-83
2022/05/20 13:09:02;;;;;;;5.30;3.47;;;25.80;99.90;;;;;;5127375;27;20039;-83
2022/05/20 13:11:40;;;;;;;8.02;3.30;;;25.90;99.90;;;;;;5122997;27;20050;-83
2022/05/20 13:14:11;;;;;;;3.88;2.22;;;25.80;99.90;;;;;;5126399;27;20728;-83
2022/05/20 13:16:40;;;;;;;3.25;2.58;;;25.70;99.90;;;;;;5125830;27;20040;-83
2022/05/20 13:19:18;;;;;;;4.07;2.67;;;25.50;99.90;;;;;;5127570;27;20047;-83
2022/05/20 13:21:57;;;;;;;4.32;2.38;;;25.50;99.90;;;;;;5128714;27;20043;-83
2022/05/20 13:24:28;;;;;;;4.20;3.05;;;25.40;99.90;;;;;;5127138;27;20042;-83
2022/05/20 13:27:10;;;;;;;3.40;2.20;;;25.40;99.90;;;;;;5130186;27;20035;-84
2022/05/20 13:29:37;;;;;;;3.95;2.35;;;25.40;99.90;;;;;;5129533;27;20043;-83
2022/05/20 13:32:18;;;;;;;3.58;2.95;;;25.40;99.90;;;;;;5128813;27;20047;-83
2022/05/20 13:34:46;;;;;;;4.20;2.40;;;25.70;99.90;;;;;;5130083;27;20052;-83
2022/05/20 13:37:15;;;;;;;2.58;2.00;;;26.00;99.90;;;;;;5128081;27;20573;-84
2022/05/20 13:39:42;;;;;;;5.00;2.63;;;25.90;99.90;;;;;;5127719;27;20057;-83
2022/05/20 13:42:13;;;;;;;5.10;2.28;;;25.60;99.90;;;;;;5110524;27;20031;-83
2022/05/20 13:44:41;;;;;;;4.43;2.40;;;25.20;99.90;;;;;;5109872;27;20043;-83
2022/05/20 13:49:55;;;;;;;5.72;3.53;;;24.50;99.90;;;;;;5128779;27;20074;-83
2022/05/20 13:52:22;;;;;;;6.25;2.95;;;24.30;99.90;;;;;;5129046;27;20669;-83
2022/05/20 13:55:01;;;;;;;5.97;3.63;;;24.40;99.90;;;;;;5108836;27;20536;-83
2022/05/20 13:57:48;;;;;;;6.18;2.67;;;24.60;99.90;;;;;;5124598;27;20070;-83
2022/05/20 14:00:34;;;;;;;4.47;3.42;;;24.50;99.90;;;;;;5108922;27;20471;-83
2022/05/20 14:03:09;;;;;;;5.13;3.72;;;24.50;99.90;;;;;;5108570;27;20139;-83
2022/05/20 14:05:51;;;;;;;6.15;3.25;;;24.50;99.90;;;;;;5122616;27;20049;-83
2022/05/20 14:08:19;;;;;;;7.57;3.30;;;24.40;99.90;;;;;;5126654;27;20059;-83
2022/05/20 14:10:52;;;;;;;6.32;3.63;;;24.30;99.90;;;;;;5121727;27;20047;-83
2022/05/20 14:13:27;;;;;;;5.93;3.42;;;24.00;99.90;;;;;;5127371;27;20039;-83
2022/05/20 14:16:00;;;;;;;8.70;4.28;;;23.90;99.90;;;;;;5125484;27;20034;-83
2022/05/20 14:18:37;;;;;;;8.63;4.68;;;23.60;99.90;;;;;;5110723;27;20039;-83
2022/05/20 14:21:11;;;;;;;9.38;4.40;;;23.70;99.90;;;;;;5106523;27;20069;-83
2022/05/20 14:23:49;;;;;;;10.10;4.72;;;23.90;99.90;;;;;;5091979;27;20506;-83
2022/05/20 14:26:33;;;;;;;6.93;4.38;;;24.20;99.90;;;;;;5106883;27;20557;-83
2022/05/20 14:28:59;;;;;;;7.22;4.72;;;24.00;99.90;;;;;;5127183;27;20501;-83
2022/05/20 14:31:46;;;;;;;6.10;4.13;;;23.90;99.90;;;;;;5126488;27;20048;-82
2022/05/20 14:34:20;;;;;;;4.95;3.50;;;24.00;99.90;;;;;;5127355;27;20040;-83
2022/05/20 14:36:47;;;;;;;9.40;4.10;;;24.10;99.90;;;;;;5124835;27;20055;-84
2022/05/20 14:39:19;;;;;;;8.77;5.28;;;23.90;99.90;;;;;;5108254;27;20047;-83
2022/05/20 14:41:59;;;;;;;8.20;4.15;;;23.70;99.90;;;;;;5128418;27;20069;-82
2022/05/20 14:44:26;;;;;;;8.65;4.40;;;23.80;99.90;;;;;;5127051;27;20050;-83
2022/05/20 14:47:15;;;;;;;7.40;4.20;;;23.70;99.90;;;;;;5125370;27;20039;-83
2022/05/20 14:49:59;;;;;;;7.70;4.30;;;23.70;99.90;;;;;;5126792;27;20127;-82
2022/05/20 14:52:30;;;;;;;7.65;3.67;;;23.40;99.90;;;;;;5127688;27;20071;-83
2022/05/20 14:54:56;;;;;;;11.43;4.47;;;23.30;99.90;;;;;;5126691;27;21070;-83
2022/05/20 14:57:27;;;;;;;11.00;6.43;;;23.30;99.90;;;;;;5093543;27;20075;-82
2022/05/20 15:00:19;;;;;;;8.65;4.20;;;23.50;99.90;;;;;;5127723;27;20040;-82
2022/05/20 15:02:46;;;;;;;10.23;4.10;;;23.50;99.90;;;;;;5125968;27;20843;-82
2022/05/20 15:05:12;;;;;;;6.60;4.57;;;23.30;99.90;;;;;;5108181;27;20145;-83
2022/05/20 15:07:40;;;;;;;7.72;4.30;;;23.20;99.70;;;;;;5125055;27;20051;-83
2022/05/20 15:10:15;;;;;;;7.20;4.00;;;23.10;99.80;;;;;;5108387;27;20054;-82
2022/05/20 15:12:41;;;;;;;10.65;4.32;;;23.10;99.50;;;;;;5125335;27;20063;-82
2022/05/20 15:15:08;;;;;;;8.60;3.50;;;23.00;99.40;;;;;;5126844;27;20078;-84
2022/05/20 15:17:38;;;;;;;5.78;4.22;;;22.80;99.30;;;;;;5123681;27;20161;-83
2022/05/20 15:20:04;;;;;;;7.95;3.42;;;22.90;99.40;;;;;;5107979;27;20037;-82
2022/05/20 15:22:30;;;;;;;8.93;2.85;;;22.90;99.00;;;;;;5124821;27;20039;-83
2022/05/20 15:24:56;;;;;;;9.05;3.47;;;22.60;98.80;;;;;;5126629;27;20042;-83
2022/05/20 15:27:25;;;;;;;11.40;4.63;;;22.40;98.80;;;;;;5126420;27;20071;-83
2022/05/20 15:29:51;;;;;;;5.78;3.28;;;22.30;99.10;;;;;;5124946;27;20153;-82
2022/05/20 15:35:04;;;;;;;8.35;3.00;;;22.10;98.90;;;;;;5127395;27;20039;-81
2022/05/20 15:37:29;;;;;;;6.30;2.90;;;22.00;98.80;;;;;;5127072;27;20071;-82
2022/05/20 15:40:36;;;;;;;6.97;2.95;;;22.10;98.70;;;;;;5126322;27;20155;-81
2022/05/20 15:43:02;;;;;;;7.43;2.95;;;22.10;98.40;;;;;;5024998;28;20121;-82
2022/05/20 15:45:28;;;;;;;12.10;2.90;;;21.90;98.40;;;;;;5107569;27;20406;-81
2022/05/20 15:47:54;;;;;;;9.88;3.45;;;21.90;98.40;;;;;;5107104;27;20051;-81
2022/05/20 15:50:22;;;;;;;7.22;2.90;;;21.90;98.60;;;;;;5126913;27;20088;-81
2022/05/20 15:53:06;;;;;;;6.75;2.55;;;21.80;98.40;;;;;;5107468;27;20147;-82
2022/05/20 15:55:34;;;;;;;2.88;1.90;;;21.80;98.50;;;;;;5125767;27;20043;-81
2022/05/20 15:58:09;;;;;;;7.97;2.45;;;21.70;98.30;;;;;;5126496;27;20043;-81
2022/05/20 16:00:37;;;;;;;4.05;2.20;;;21.60;98.40;;;;;;5108393;27;20507;-80
2022/05/20 16:03:03;;;;;;;4.70;2.25;;;21.60;98.40;;;;;;5124088;27;20875;-81
2022/05/20 16:05:29;;;;;;;9.75;2.08;;;21.70;98.40;;;;;;5105262;27;20102;-81
2022/05/20 16:08:01;;;;;;;4.50;2.33;;;21.60;98.30;;;;;;5109207;27;20043;-80
2022/05/20 16:10:30;;;;;;;;;;;21.80;98.50;;;;;;5126263;27;20042;-81
2022/05/20 16:12:56;;;;;;;6.63;2.05;;;21.90;98.40;;;;;;5108323;27;20303;-81
2022/05/20 16:15:22;;;;;;;5.10;1.90;;;21.90;98.20;;;;;;5107531;27;20043;-81
2022/05/20 16:17:48;;;;;;;8.93;2.55;;;21.70;98.10;;;;;;5105806;27;20890;-81
2022/05/20 16:20:15;;;;;;;5.18;2.95;;;21.70;98.30;;;;;;5125604;27;20048;-81
2022/05/20 16:22:43;;;;;;;6.05;2.00;;;21.70;98.20;;;;;;5105070;27;20038;-80
2022/05/20 16:25:10;;;;;;;3.45;2.10;;;21.90;97.90;;;;;;5124379;27;20406;-79
2022/05/20 16:27:46;;;;;;;7.50;2.30;;;21.70;97.70;;;;;;5092916;27;20036;-80
2022/05/20 16:30:14;;;;;;;3.00;1.70;;;21.70;97.80;;;;;;5127480;27;20040;-80
2022/05/20 16:32:43;;;;;;;7.45;2.00;;;21.70;97.50;;;;;;5124926;27;20059;-78
2022/05/20 16:35:09;;;;;;;4.50;1.73;;;21.60;97.70;;;;;;5093454;27;20503;-79
2022/05/20 16:37:36;;;;;;;2.95;1.65;;;21.60;97.60;;;;;;5103686;27;20047;-79
2022/05/20 16:40:04;;;;;;;3.95;2.38;;;21.50;97.20;;;;;;5124856;27;20086;-78
2022/05/20 16:42:30;;;;;;;11.02;2.15;;;21.50;97.30;;;;;;5126489;27;20092;-78
2022/05/20 16:44:56;;;;;;;4.85;1.98;;;21.60;97.30;;;;;;5125728;27;20116;-79
2022/05/20 16:47:22;;;;;;;6.30;2.50;;;21.70;97.30;;;;;;5103701;27;20655;-79
2022/05/20 16:49:48;;;;;;;4.75;1.85;;;22.00;97.30;;;;;;5105270;27;20039;-79
2022/05/20 16:52:17;;;;;;;5.20;1.48;;;22.20;97.00;;;;;;5125127;27;20036;-79
2022/05/20 16:54:46;;;;;;;5.15;2.53;;;22.20;96.60;;;;;;5123284;27;20032;-79
2022/05/20 17:02:44;;;;;;;7.93;2.35;;;21.80;96.40;;;;;;5117645;27;20145;-81
2022/05/20 17:05:11;;;;;;;6.53;1.60;;;21.60;96.20;;;;;;5098940;27;20093;-80
2022/05/20 17:07:37;;;;;;;4.03;1.83;;;21.60;96.20;;;;;;5120588;27;20039;-80
2022/05/20 17:10:05;;;;;;;7.13;2.65;;;21.60;96.10;;;;;;5098561;27;20039;-84
2022/05/20 17:12:31;;;;;;;2.78;1.40;;;21.60;95.90;;;;;;5086345;27;20047;-81
2022/05/20 17:14:56;;;;;;;4.22;1.70;;;21.50;95.70;;;;;;5103797;27;20116;-82
2022/05/20 17:17:25;;;;;;;6.68;1.60;;;21.50;95.90;;;;;;5098722;27;20071;-81
2022/05/20 17:19:50;;;;;;;2.47;1.63;;;21.40;95.80;;;;;;5116646;27;20644;-81
2022/05/20 17:25:17;;;;;;;2.17;1.23;;;21.40;95.70;;;;;;5122850;27;20051;-80
2022/05/20 17:27:58;;;;;;;5.70;1.75;;;21.00;95.30;;;;;;5117089;27;20920;-81
2022/05/20 17:30:36;;;;;;;4.33;1.67;;;21.20;95.40;;;;;;5113036;27;20055;-81
2022/05/20 17:33:17;;;;;;;2.70;1.55;;;21.10;95.20;;;;;;5117708;27;21220;-82
2022/05/20 17:36:01;;;;;;;3.17;1.33;;;21.30;95.40;;;;;;5098842;27;20054;-80
2022/05/20 17:38:33;;;;;;;3.42;1.02;;;20.80;95.30;;;;;;5094488;27;20161;-80
2022/05/20 17:41:27;;;;;;;4.05;1.25;;;21.30;95.40;;;;;;5097489;27;20116;-80
2022/05/20 17:44:00;;;;;;;5.88;1.38;;;21.10;95.30;;;;;;5095252;27;20113;-80
2022/05/20 17:46:38;;;;;;;4.00;1.02;;;21.10;95.30;;;;;;5057691;28;20079;-79
2022/05/20 17:49:10;;;;;;;5.85;1.88;;;21.00;95.20;;;;;;5048880;28;21104;-80
2022/05/20 17:51:44;;;;;;;3.67;1.48;;;20.90;95.20;;;;;;5039599;28;20053;-80